Time;durP1;ratioP1;P1;durP2;ratioP2;P2;SDS_P1;SDS_P2;PMS_P1;PMS_P2;Temp;Humidity;BMP_temperature;BMP_pressure;BME280_temperature;BME280_humidity;BME280_pressure;Samples;Min_cycle;Max_cycle;Signal;HPM_P1;HPM_P2
2023/11/21 00:02:14;;;;;;;25.05;11.18;;;6.60;99.90;;;;;;5028948;28;20040;-79
2023/11/21 00:04:40;;;;;;;30.90;13.68;;;6.60;99.90;;;;;;5029616;28;20032;-79
2023/11/21 00:07:06;;;;;;;30.52;12.25;;;6.50;99.90;;;;;;5014038;28;20032;-79
2023/11/21 00:09:32;;;;;;;25.45;11.68;;;6.50;99.90;;;;;;5010986;28;20040;-79
2023/11/21 00:11:59;;;;;;;26.15;13.35;;;6.50;99.90;;;;;;5028304;28;20570;-79
2023/11/21 00:14:25;;;;;;;15.10;10.07;;;6.40;99.90;;;;;;5029800;28;20108;-79
2023/11/21 00:16:50;;;;;;;13.75;8.30;;;6.40;99.90;;;;;;5029141;28;20039;-79
2023/11/21 00:19:16;;;;;;;19.80;7.85;;;6.50;99.90;;;;;;5027550;28;20037;-79
2023/11/21 00:21:44;;;;;;;15.63;9.63;;;6.60;99.90;;;;;;5027270;28;20047;-80
2023/11/21 00:24:09;;;;;;;22.45;10.05;;;6.60;99.90;;;;;;5008479;28;20091;-79
2023/11/21 00:26:37;;;;;;;16.67;10.07;;;6.50;99.90;;;;;;5026824;28;20029;-79
2023/11/21 00:29:03;;;;;;;17.38;9.20;;;6.60;99.90;;;;;;5028622;28;20107;-79
2023/11/21 00:31:30;;;;;;;22.25;12.50;;;6.60;99.90;;;;;;5015858;28;20033;-79
2023/11/21 00:33:56;;;;;;;20.75;12.68;;;6.50;99.90;;;;;;5028597;28;20417;-79
2023/11/21 00:36:21;;;;;;;21.77;11.75;;;6.50;99.90;;;;;;5028757;28;20033;-79
2023/11/21 00:38:48;;;;;;;20.70;9.95;;;6.40;99.90;;;;;;5028801;28;20476;-79
2023/11/21 00:41:13;;;;;;;22.38;12.02;;;6.50;99.90;;;;;;5026455;28;20489;-79
2023/11/21 00:43:39;;;;;;;26.75;13.15;;;6.50;99.90;;;;;;5027975;28;20028;-79
2023/11/21 00:46:07;;;;;;;21.98;11.35;;;6.50;99.90;;;;;;5029391;28;20056;-79
2023/11/21 00:48:33;;;;;;;16.65;10.00;;;6.60;99.90;;;;;;5042316;28;20449;-79
2023/11/21 00:50:58;;;;;;;23.52;11.00;;;6.60;99.90;;;;;;5013211;28;20029;-79
2023/11/21 00:53:24;;;;;;;16.65;9.20;;;6.60;99.90;;;;;;5027367;28;20036;-79
2023/11/21 00:55:49;;;;;;;25.05;11.55;;;6.70;99.90;;;;;;5011430;28;20250;-79
2023/11/21 00:58:15;;;;;;;14.07;7.75;;;6.70;99.90;;;;;;5026728;28;20043;-79
2023/11/21 01:00:41;;;;;;;17.90;10.38;;;6.70;99.90;;;;;;5011315;28;20029;-79
2023/11/21 01:03:07;;;;;;;11.15;7.15;;;6.70;99.90;;;;;;5011540;28;20043;-79
2023/11/21 01:05:34;;;;;;;21.80;10.98;;;6.80;99.90;;;;;;5010551;28;20495;-79
2023/11/21 01:07:59;;;;;;;20.38;10.90;;;6.80;99.90;;;;;;5025889;28;20115;-79
2023/11/21 01:10:25;;;;;;;20.08;11.10;;;6.70;99.90;;;;;;5011287;28;20032;-79
2023/11/21 01:12:51;;;;;;;27.42;12.85;;;6.70;99.90;;;;;;5011834;28;20494;-79
2023/11/21 01:15:16;;;;;;;17.23;8.80;;;6.70;99.90;;;;;;5028010;28;20935;-79
2023/11/21 01:17:42;;;;;;;26.85;11.90;;;6.60;99.90;;;;;;5011074;28;20634;-79
2023/11/21 01:20:12;;;;;;;27.10;11.88;;;6.70;99.90;;;;;;5028444;28;20036;-79
2023/11/21 01:22:38;;;;;;;24.65;12.02;;;6.60;99.90;;;;;;5031021;28;20060;-79
2023/11/21 01:25:07;;;;;;;15.93;8.07;;;6.70;99.90;;;;;;5028713;28;20072;-79
2023/11/21 01:27:35;;;;;;;13.35;7.47;;;6.70;99.90;;;;;;5028442;28;20052;-79
2023/11/21 01:30:04;;;;;;;17.00;8.85;;;6.70;99.90;;;;;;5029159;28;20609;-79
2023/11/21 01:32:30;;;;;;;25.00;11.57;;;6.80;99.90;;;;;;5027435;28;20484;-79
2023/11/21 01:34:55;;;;;;;21.10;11.07;;;6.70;99.90;;;;;;5011948;28;20060;-79
2023/11/21 01:37:21;;;;;;;18.40;9.50;;;6.70;99.90;;;;;;5044950;28;20045;-85
2023/11/21 01:39:47;;;;;;;15.35;9.20;;;6.70;99.90;;;;;;5042330;28;20115;-85
2023/11/21 01:42:13;;;;;;;13.63;8.07;;;6.80;99.90;;;;;;5030860;28;20111;-86
2023/11/21 01:44:39;;;;;;;15.98;8.65;;;6.80;99.90;;;;;;5028067;28;20492;-87
2023/11/21 01:47:06;;;;;;;19.35;9.95;;;6.80;99.90;;;;;;5026960;28;20064;-86
2023/11/21 01:49:34;;;;;;;16.52;9.15;;;6.80;99.90;;;;;;5011101;28;20040;-86
2023/11/21 01:52:00;;;;;;;19.75;10.13;;;6.90;99.90;;;;;;5027171;28;20483;-86
2023/11/21 01:54:25;;;;;;;14.55;8.43;;;6.90;99.90;;;;;;5028771;28;20321;-86
2023/11/21 01:56:51;;;;;;;16.67;8.27;;;6.80;99.90;;;;;;5021781;28;20025;-85
2023/11/21 01:59:21;;;;;;;13.88;7.55;;;6.90;99.90;;;;;;5021469;28;20029;-86
2023/11/21 02:01:46;;;;;;;23.08;11.70;;;6.90;99.90;;;;;;5030225;28;20094;-86
2023/11/21 02:04:13;;;;;;;17.25;8.80;;;6.80;99.90;;;;;;5028434;28;20140;-86
2023/11/21 02:06:38;;;;;;;13.15;7.47;;;6.90;99.90;;;;;;5027212;28;20037;-86
2023/11/21 02:09:04;;;;;;;13.82;8.25;;;6.90;99.90;;;;;;5026756;28;20075;-85
2023/11/21 02:11:30;;;;;;;17.65;9.23;;;6.80;99.90;;;;;;5029166;28;20123;-84
2023/11/21 02:13:57;;;;;;;15.05;7.57;;;6.80;99.90;;;;;;5027294;28;20146;-86
2023/11/21 02:16:23;;;;;;;14.45;8.10;;;6.90;99.90;;;;;;5042528;28;20084;-85
2023/11/21 02:18:48;;;;;;;18.08;10.07;;;6.90;99.90;;;;;;5024898;28;20021;-84
2023/11/21 02:21:14;;;;;;;12.25;7.55;;;6.90;99.90;;;;;;5030907;28;20021;-86
2023/11/21 02:23:44;;;;;;;22.02;11.00;;;6.90;99.90;;;;;;5048958;28;20083;-86
2023/11/21 02:26:10;;;;;;;25.67;11.55;;;6.90;99.90;;;;;;5012297;28;20155;-86
2023/11/21 02:28:36;;;;;;;17.52;8.60;;;6.90;99.90;;;;;;5025413;28;20044;-85
2023/11/21 02:31:02;;;;;;;17.92;8.85;;;6.90;99.90;;;;;;5043615;28;20053;-86
2023/11/21 02:33:28;;;;;;;18.15;10.73;;;6.90;99.90;;;;;;5041804;28;20044;-85
2023/11/21 02:35:54;;;;;;;23.08;9.85;;;6.90;99.90;;;;;;5056667;28;20037;-86
2023/11/21 02:38:21;;;;;;;22.45;10.88;;;6.90;99.90;;;;;;5026533;28;20029;-85
2023/11/21 02:40:46;;;;;;;16.52;9.20;;;6.90;99.90;;;;;;5012089;28;20033;-83
2023/11/21 02:43:12;;;;;;;11.55;6.43;;;6.90;99.90;;;;;;5012019;28;20409;-86
2023/11/21 02:45:37;;;;;;;12.90;7.47;;;6.90;99.90;;;;;;5012830;28;20041;-86
2023/11/21 02:48:04;;;;;;;23.73;11.00;;;6.90;99.90;;;;;;5027903;28;20029;-86
2023/11/21 02:50:30;;;;;;;19.50;11.23;;;6.90;99.90;;;;;;5043274;28;20037;-85
2023/11/21 02:52:57;;;;;;;16.58;7.95;;;6.90;99.90;;;;;;5025445;28;20183;-85
2023/11/21 02:55:24;;;;;;;23.55;11.02;;;6.90;99.90;;;;;;5043487;28;20134;-87
2023/11/21 02:57:50;;;;;;;23.58;10.23;;;7.00;99.90;;;;;;5027985;28;20033;-87
2023/11/21 03:00:16;;;;;;;29.23;11.65;;;7.00;99.90;;;;;;5012508;28;20518;-84
2023/11/21 03:02:43;;;;;;;21.48;11.27;;;6.90;99.90;;;;;;5026658;28;20037;-86
2023/11/21 03:05:09;;;;;;;13.93;8.13;;;6.90;99.90;;;;;;5028225;28;20208;-86
2023/11/21 03:07:34;;;;;;;22.50;11.32;;;6.80;99.90;;;;;;5024487;28;20033;-80
2023/11/21 03:10:00;;;;;;;14.10;7.32;;;6.90;99.90;;;;;;5041306;28;20400;-84
2023/11/21 03:12:26;;;;;;;12.65;7.97;;;6.90;99.90;;;;;;5022359;28;20360;-86
2023/11/21 03:14:51;;;;;;;17.55;9.13;;;6.90;99.90;;;;;;5027771;28;20094;-84
2023/11/21 03:17:17;;;;;;;24.55;11.25;;;6.90;99.90;;;;;;5030515;28;20396;-84
2023/11/21 03:19:42;;;;;;;10.07;7.25;;;6.90;99.90;;;;;;5036777;28;20692;-83
2023/11/21 03:22:08;;;;;;;14.52;6.82;;;6.90;99.90;;;;;;5016195;28;20507;-86
2023/11/21 03:24:34;;;;;;;22.10;9.63;;;6.90;99.90;;;;;;5029969;28;20508;-84
2023/11/21 03:27:00;;;;;;;13.27;7.90;;;6.90;99.90;;;;;;5013039;28;20064;-84
2023/11/21 03:29:25;;;;;;;11.38;7.15;;;6.90;99.90;;;;;;5031361;28;20896;-86
2023/11/21 03:31:51;;;;;;;20.13;9.40;;;6.90;99.90;;;;;;5012968;28;20585;-87
2023/11/21 03:34:26;;;;;;;20.25;11.00;;;6.90;99.90;;;;;;5015153;28;20441;-85
2023/11/21 03:36:52;;;;;;;16.07;8.83;;;6.90;99.90;;;;;;5029009;28;20045;-86
2023/11/21 03:39:18;;;;;;;13.23;7.18;;;6.90;99.90;;;;;;5032563;28;20384;-82
2023/11/21 03:41:44;;;;;;;25.25;10.57;;;6.90;99.90;;;;;;5026613;28;20037;-86
2023/11/21 03:44:10;;;;;;;12.55;6.03;;;7.00;99.90;;;;;;5030103;28;20514;-86
2023/11/21 03:46:36;;;;;;;11.30;6.85;;;6.90;99.90;;;;;;5011773;28;20025;-84
2023/11/21 03:49:01;;;;;;;24.67;10.55;;;6.90;99.90;;;;;;5026646;28;20400;-86
2023/11/21 03:51:27;;;;;;;15.02;7.97;;;6.90;99.90;;;;;;5013689;28;20473;-85
2023/11/21 03:53:52;;;;;;;24.92;11.32;;;6.90;99.90;;;;;;5049534;28;20516;-84
2023/11/21 03:56:18;;;;;;;23.35;11.30;;;6.80;99.90;;;;;;5027621;28;20099;-86
2023/11/21 03:58:43;;;;;;;22.08;10.00;;;6.80;99.90;;;;;;5029676;28;20025;-86
2023/11/21 04:01:09;;;;;;;14.98;7.43;;;6.80;99.90;;;;;;5027656;28;20114;-86
2023/11/21 04:03:35;;;;;;;13.43;7.55;;;6.90;99.90;;;;;;5029113;28;20370;-85
2023/11/21 04:06:01;;;;;;;17.20;8.05;;;6.90;99.90;;;;;;5012819;28;20564;-85
2023/11/21 04:08:27;;;;;;;16.75;8.10;;;6.90;99.90;;;;;;4995545;28;20156;-85
2023/11/21 04:10:53;;;;;;;20.67;8.57;;;6.90;99.90;;;;;;5042963;28;20446;-86
2023/11/21 04:13:19;;;;;;;19.52;9.48;;;6.90;99.90;;;;;;5045142;28;20083;-83
2023/11/21 04:15:44;;;;;;;13.57;7.45;;;6.90;99.90;;;;;;5013373;28;20037;-86
2023/11/21 04:18:10;;;;;;;15.38;9.55;;;6.90;99.90;;;;;;5014670;28;20436;-85
2023/11/21 04:20:35;;;;;;;22.92;10.90;;;6.90;99.90;;;;;;5014150;28;20030;-86
2023/11/21 04:23:01;;;;;;;17.08;8.95;;;6.90;99.90;;;;;;5041609;28;20021;-85
2023/11/21 04:25:28;;;;;;;17.33;9.00;;;6.80;99.90;;;;;;5028917;28;20492;-86
2023/11/21 04:27:54;;;;;;;21.60;8.80;;;6.80;99.90;;;;;;5038588;28;20037;-86
2023/11/21 04:30:20;;;;;;;26.45;11.82;;;6.90;99.90;;;;;;5028159;28;20036;-84
2023/11/21 04:32:46;;;;;;;22.50;10.90;;;6.90;99.90;;;;;;5030002;28;20488;-86
2023/11/21 04:35:11;;;;;;;16.38;7.85;;;6.90;99.90;;;;;;5042627;28;20036;-84
2023/11/21 04:37:37;;;;;;;15.25;8.95;;;6.90;99.90;;;;;;5013369;28;20037;-86
2023/11/21 04:40:06;;;;;;;26.05;12.43;;;7.00;99.90;;;;;;5046163;28;20036;-85
2023/11/21 04:42:36;;;;;;;24.67;12.15;;;7.00;99.90;;;;;;5043909;28;21417;-86
2023/11/21 04:45:04;;;;;;;30.77;13.55;;;7.00;99.90;;;;;;5011912;28;20043;-87
2023/11/21 04:47:30;;;;;;;18.50;7.80;;;6.90;99.90;;;;;;5040225;28;20052;-86
2023/11/21 04:49:56;;;;;;;15.40;8.68;;;6.90;99.90;;;;;;5010456;28;20028;-85
2023/11/21 04:52:21;;;;;;;27.48;12.63;;;6.90;99.90;;;;;;5011176;28;20051;-85
2023/11/21 04:54:48;;;;;;;23.77;12.05;;;6.90;99.90;;;;;;5012286;28;20392;-87
2023/11/21 04:57:14;;;;;;;26.55;9.85;;;6.90;99.90;;;;;;5027189;28;20503;-85
2023/11/21 04:59:39;;;;;;;36.70;14.05;;;6.90;99.90;;;;;;5026358;28;20020;-84
2023/11/21 05:02:05;;;;;;;17.60;8.85;;;7.00;99.90;;;;;;5008627;28;20037;-87
2023/11/21 05:04:30;;;;;;;20.08;9.77;;;7.00;99.90;;;;;;5044745;28;20407;-86
2023/11/21 05:06:56;;;;;;;21.73;10.48;;;7.00;99.90;;;;;;5030875;28;20488;-85
2023/11/21 05:09:22;;;;;;;16.75;8.25;;;7.00;99.90;;;;;;5011666;28;20086;-86
2023/11/21 05:11:47;;;;;;;22.17;9.23;;;7.00;99.90;;;;;;5012966;28;20035;-87
2023/11/21 05:14:14;;;;;;;24.38;11.60;;;6.90;99.90;;;;;;5030197;28;20029;-85
2023/11/21 05:16:39;;;;;;;24.90;13.20;;;6.90;99.90;;;;;;5043676;28;20396;-83
2023/11/21 05:19:06;;;;;;;13.82;8.57;;;6.90;99.90;;;;;;5011775;28;20032;-85
2023/11/21 05:21:32;;;;;;;15.32;8.00;;;6.90;99.90;;;;;;5013127;28;20029;-85
2023/11/21 05:23:58;;;;;;;20.58;10.40;;;6.90;99.90;;;;;;5029155;28;20029;-85
2023/11/21 05:26:23;;;;;;;31.35;13.65;;;7.00;99.90;;;;;;5026310;28;20389;-86
2023/11/21 05:28:49;;;;;;;31.77;15.25;;;7.00;99.90;;;;;;5024565;28;20583;-89
2023/11/21 05:31:15;;;;;;;13.63;7.18;;;7.00;99.90;;;;;;5029002;28;20029;-85
2023/11/21 05:33:41;;;;;;;27.15;12.80;;;7.00;99.90;;;;;;5027615;28;20040;-84
2023/11/21 05:36:07;;;;;;;35.13;15.32;;;7.00;99.90;;;;;;5044376;28;20037;-85
2023/11/21 05:38:33;;;;;;;21.23;10.15;;;7.00;99.90;;;;;;5025643;28;20471;-87
2023/11/21 05:40:59;;;;;;;37.35;15.57;;;7.10;99.90;;;;;;5027401;28;20033;-86
2023/11/21 05:43:24;;;;;;;33.42;14.52;;;7.00;99.90;;;;;;5026658;28;20017;-85
2023/11/21 05:45:50;;;;;;;37.53;13.75;;;6.90;99.90;;;;;;5027184;28;20044;-84
2023/11/21 05:48:15;;;;;;;23.98;10.10;;;7.00;99.90;;;;;;5024735;28;20421;-85
2023/11/21 05:50:41;;;;;;;30.45;12.23;;;6.90;99.90;;;;;;5041892;28;20389;-83
2023/11/21 05:53:07;;;;;;;15.93;7.95;;;6.90;99.90;;;;;;5012083;28;20480;-85
2023/11/21 05:55:32;;;;;;;21.67;10.23;;;7.00;99.90;;;;;;5028446;28;20435;-79
2023/11/21 05:57:58;;;;;;;27.25;13.13;;;7.00;99.90;;;;;;5027087;28;20056;-79
2023/11/21 06:00:25;;;;;;;25.08;10.50;;;7.00;99.90;;;;;;5012147;28;20106;-79
2023/11/21 06:02:55;;;;;;;23.05;9.07;;;6.90;99.90;;;;;;5010838;28;20124;-78
2023/11/21 06:05:25;;;;;;;23.17;12.63;;;6.90;99.90;;;;;;5010821;28;20037;-79
2023/11/21 06:07:52;;;;;;;27.23;11.18;;;7.00;99.90;;;;;;5039239;28;20025;-79
2023/11/21 06:10:20;;;;;;;21.42;11.57;;;7.00;99.90;;;;;;5011106;28;20033;-78
2023/11/21 06:12:46;;;;;;;23.95;12.70;;;6.90;99.90;;;;;;5043993;28;20139;-78
2023/11/21 06:15:15;;;;;;;26.02;12.55;;;6.90;99.90;;;;;;5013830;28;20127;-79
2023/11/21 06:17:41;;;;;;;28.85;12.88;;;6.90;99.90;;;;;;5028897;28;20078;-79
2023/11/21 06:20:13;;;;;;;18.60;8.95;;;6.90;99.90;;;;;;5012318;28;20045;-79
2023/11/21 06:22:40;;;;;;;24.42;11.80;;;6.90;99.90;;;;;;5011338;28;20041;-79
2023/11/21 06:25:06;;;;;;;25.90;11.98;;;7.00;99.90;;;;;;5045352;28;20048;-79
2023/11/21 06:27:39;;;;;;;25.33;13.50;;;7.00;99.90;;;;;;5042967;28;20088;-79
2023/11/21 06:30:06;;;;;;;28.85;14.43;;;6.90;99.90;;;;;;5027507;28;20431;-79
2023/11/21 06:32:32;;;;;;;37.75;15.93;;;6.90;99.90;;;;;;5010607;28;20512;-78
2023/11/21 06:35:00;;;;;;;33.53;15.38;;;6.90;99.90;;;;;;5012380;28;20033;-78
2023/11/21 06:37:27;;;;;;;17.25;9.60;;;6.80;99.90;;;;;;5026326;28;20041;-78
2023/11/21 06:39:53;;;;;;;20.20;10.23;;;6.90;99.90;;;;;;5011448;28;20032;-79
2023/11/21 06:42:21;;;;;;;38.65;15.18;;;6.90;99.90;;;;;;5031616;28;20037;-78
2023/11/21 06:44:48;;;;;;;30.90;14.32;;;6.80;99.90;;;;;;4999212;28;20025;-78
2023/11/21 06:47:13;;;;;;;30.20;12.27;;;6.80;99.90;;;;;;5019588;28;21380;-79
2023/11/21 06:49:48;;;;;;;17.67;8.10;;;6.80;99.90;;;;;;5027679;28;20033;-79
2023/11/21 06:52:14;;;;;;;27.85;11.32;;;6.80;99.90;;;;;;5046683;28;20044;-79
2023/11/21 06:54:39;;;;;;;14.70;7.68;;;6.90;99.90;;;;;;5031215;28;20025;-79
2023/11/21 06:57:05;;;;;;;20.40;9.93;;;6.90;99.90;;;;;;5038863;28;20025;-79
2023/11/21 06:59:33;;;;;;;21.40;9.80;;;7.00;99.90;;;;;;5041283;28;20033;-79
2023/11/21 07:01:58;;;;;;;11.60;7.05;;;7.00;99.90;;;;;;5018068;28;20024;-78
2023/11/21 07:04:25;;;;;;;17.38;7.85;;;7.00;99.90;;;;;;5001984;28;20080;-85
2023/11/21 07:06:51;;;;;;;18.27;10.13;;;7.00;99.90;;;;;;4999476;28;20025;-87
2023/11/21 07:09:17;;;;;;;25.60;13.80;;;7.00;99.90;;;;;;5017560;28;20040;-84
2023/11/21 07:11:42;;;;;;;25.42;11.45;;;7.00;99.90;;;;;;5015802;28;20022;-85
2023/11/21 07:14:08;;;;;;;19.50;9.82;;;7.00;99.90;;;;;;5031531;28;20035;-85
2023/11/21 07:16:37;;;;;;;17.35;8.45;;;7.00;99.90;;;;;;5022732;28;20029;-83
2023/11/21 07:19:08;;;;;;;19.73;9.15;;;7.00;99.90;;;;;;5021683;28;20033;-84
2023/11/21 07:21:37;;;;;;;18.10;8.48;;;7.10;99.90;;;;;;5019214;28;20438;-86
2023/11/21 07:24:03;;;;;;;14.68;7.22;;;7.10;99.90;;;;;;5031138;28;20119;-88
2023/11/21 07:26:29;;;;;;;21.75;9.82;;;7.10;99.90;;;;;;5005178;28;20033;-88
2023/11/21 07:28:55;;;;;;;27.13;11.65;;;7.20;99.90;;;;;;5005806;28;20060;-86
2023/11/21 07:31:24;;;;;;;24.17;10.05;;;7.20;99.90;;;;;;5014154;28;20179;-84
2023/11/21 07:33:50;;;;;;;16.92;9.85;;;7.20;99.90;;;;;;5008026;28;20089;-87
2023/11/21 07:36:18;;;;;;;26.15;11.13;;;7.20;99.90;;;;;;5022434;28;20469;-87
2023/11/21 07:38:44;;;;;;;18.13;9.60;;;7.10;99.90;;;;;;5015748;28;20025;-86
2023/11/21 07:41:10;;;;;;;22.92;11.57;;;7.10;99.90;;;;;;5031079;28;20469;-85
2023/11/21 07:43:42;;;;;;;28.80;12.75;;;7.20;99.90;;;;;;5006435;28;20033;-87
2023/11/21 07:46:07;;;;;;;23.88;11.45;;;7.20;99.90;;;;;;5015168;28;20040;-85
2023/11/21 07:48:33;;;;;;;15.90;8.25;;;7.20;99.90;;;;;;5012209;28;20033;-86
2023/11/21 07:50:59;;;;;;;22.90;10.15;;;7.30;99.90;;;;;;5032466;28;20519;-87
2023/11/21 07:53:25;;;;;;;18.25;8.48;;;7.30;99.90;;;;;;5041281;28;20033;-86
2023/11/21 07:55:52;;;;;;;25.98;10.05;;;7.40;99.90;;;;;;5014302;28;20643;-85
2023/11/21 07:58:18;;;;;;;23.85;11.00;;;7.40;99.90;;;;;;5013419;28;20484;-87
2023/11/21 08:00:43;;;;;;;24.63;11.73;;;7.40;99.90;;;;;;5029808;28;20091;-87
2023/11/21 08:03:09;;;;;;;34.28;11.55;;;7.40;99.90;;;;;;5014507;28;20032;-86
2023/11/21 08:05:35;;;;;;;34.17;14.73;;;7.40;99.90;;;;;;5032614;28;20026;-87
2023/11/21 08:08:01;;;;;;;30.77;13.07;;;7.40;99.90;;;;;;5044699;28;20041;-86
2023/11/21 08:10:26;;;;;;;31.98;13.50;;;7.50;99.90;;;;;;5026722;28;20044;-85
2023/11/21 08:12:53;;;;;;;23.67;10.68;;;7.60;99.90;;;;;;5014507;28;20033;-87
2023/11/21 08:15:19;;;;;;;67.20;21.50;;;7.70;99.90;;;;;;5045532;28;20043;-79
2023/11/21 08:17:46;;;;;;;62.05;21.52;;;7.70;99.90;;;;;;5028153;28;20048;-79
2023/11/21 08:20:11;;;;;;;57.83;20.17;;;7.70;99.90;;;;;;5030977;28;20380;-78
2023/11/21 08:22:37;;;;;;;72.60;25.58;;;7.70;99.90;;;;;;5044585;28;20120;-79
2023/11/21 08:25:06;;;;;;;50.15;19.40;;;7.80;99.90;;;;;;5026245;28;20049;-80
2023/11/21 08:27:31;;;;;;;63.53;22.38;;;7.80;99.90;;;;;;5030282;28;20032;-78
2023/11/21 08:29:57;;;;;;;57.40;19.38;;;7.90;99.90;;;;;;5013950;28;20028;-79
2023/11/21 08:32:22;;;;;;;40.13;16.10;;;7.90;99.90;;;;;;5019507;28;20025;-80
2023/11/21 08:34:50;;;;;;;52.88;20.48;;;7.90;99.90;;;;;;5022097;28;20076;-79
2023/11/21 08:37:16;;;;;;;83.47;27.17;;;8.00;99.90;;;;;;5004507;28;20531;-78
2023/11/21 08:39:43;;;;;;;51.17;17.88;;;8.00;99.90;;;;;;5028376;28;20033;-78
2023/11/21 08:42:09;;;;;;;53.08;19.58;;;8.10;99.90;;;;;;5021317;28;20025;-77
2023/11/21 08:44:34;;;;;;;43.90;17.75;;;8.10;99.90;;;;;;5027882;28;20033;-78
2023/11/21 08:47:00;;;;;;;63.80;24.75;;;8.10;99.90;;;;;;5008315;28;20028;-78
2023/11/21 08:49:27;;;;;;;82.95;28.55;;;8.10;99.90;;;;;;5026839;28;20065;-78
2023/11/21 08:51:55;;;;;;;43.20;16.52;;;8.10;99.90;;;;;;5029472;28;20484;-78
2023/11/21 08:54:20;;;;;;;81.55;26.63;;;8.20;99.90;;;;;;5028903;28;20116;-78
2023/11/21 08:56:46;;;;;;;90.57;29.80;;;8.30;99.90;;;;;;5022228;28;20108;-78
2023/11/21 08:59:14;;;;;;;64.28;23.17;;;8.30;99.90;;;;;;5041426;28;20449;-78
2023/11/21 09:01:40;;;;;;;80.47;28.50;;;8.30;99.90;;;;;;5044543;28;20021;-78
2023/11/21 09:04:06;;;;;;;72.78;23.80;;;8.30;99.90;;;;;;5028054;28;20036;-78
2023/11/21 09:06:32;;;;;;;37.92;16.00;;;8.40;99.90;;;;;;5038724;28;20025;-78
2023/11/21 09:08:58;;;;;;;45.80;18.77;;;8.50;99.90;;;;;;5026753;28;20048;-78
2023/11/21 09:11:25;;;;;;;48.05;18.38;;;8.50;99.90;;;;;;5017746;28;20064;-77
2023/11/21 09:13:51;;;;;;;63.70;21.90;;;8.50;99.90;;;;;;5030025;28;20387;-77
2023/11/21 09:16:17;;;;;;;40.72;16.05;;;8.50;99.90;;;;;;5027625;28;20048;-79
2023/11/21 09:18:43;;;;;;;44.20;17.10;;;8.60;99.90;;;;;;5042443;28;20385;-78
2023/11/21 09:21:11;;;;;;;83.07;27.83;;;8.70;99.90;;;;;;5040076;28;20025;-78
2023/11/21 09:23:40;;;;;;;71.35;25.90;;;8.70;99.90;;;;;;5029578;28;20544;-78
2023/11/21 09:26:05;;;;;;;43.95;16.73;;;8.80;99.90;;;;;;5028242;28;20040;-78
2023/11/21 09:28:31;;;;;;;55.67;20.13;;;8.70;99.90;;;;;;5017596;28;20876;-78
2023/11/21 09:30:57;;;;;;;69.75;25.65;;;8.80;99.90;;;;;;5011290;28;20396;-78
2023/11/21 09:33:24;;;;;;;94.60;31.25;;;8.90;99.90;;;;;;5010883;28;20036;-78
2023/11/21 09:35:51;;;;;;;134.68;41.72;;;9.00;99.90;;;;;;5015222;28;20075;-79
2023/11/21 09:38:16;;;;;;;96.65;30.13;;;9.10;99.90;;;;;;5028136;28;20040;-78
2023/11/21 09:40:42;;;;;;;82.57;27.02;;;9.10;99.90;;;;;;5011275;28;20036;-79
2023/11/21 09:43:17;;;;;;;62.88;24.33;;;9.10;99.90;;;;;;5029559;28;20096;-78
2023/11/21 09:45:50;;;;;;;128.93;39.42;;;9.20;99.90;;;;;;5014426;28;20071;-78
2023/11/21 09:48:16;;;;;;;148.00;40.80;;;9.30;99.90;;;;;;5024312;28;20033;-78
2023/11/21 09:50:42;;;;;;;70.70;24.13;;;9.30;99.90;;;;;;5040309;28;20037;-78
2023/11/21 09:53:24;;;;;;;66.22;23.98;;;9.30;99.90;;;;;;5043723;28;20563;-78
2023/11/21 09:55:52;;;;;;;75.88;26.40;;;9.30;99.90;;;;;;5029870;28;20036;-78
2023/11/21 09:58:21;;;;;;;112.65;37.58;;;9.30;99.90;;;;;;5044666;28;20056;-78
2023/11/21 10:00:48;;;;;;;112.47;36.97;;;9.40;99.90;;;;;;5042100;28;20136;-78
2023/11/21 10:03:13;;;;;;;91.82;31.60;;;9.40;99.90;;;;;;5041532;28;20042;-78
2023/11/21 10:05:45;;;;;;;76.57;28.73;;;9.40;99.90;;;;;;5044058;28;20036;-78
2023/11/21 10:08:11;;;;;;;127.65;38.95;;;9.50;99.90;;;;;;5005017;28;20716;-79
2023/11/21 10:10:38;;;;;;;97.80;32.70;;;9.50;99.90;;;;;;5026074;28;20035;-79
2023/11/21 10:13:08;;;;;;;106.65;34.55;;;9.50;99.90;;;;;;5026115;28;20033;-77
2023/11/21 10:15:37;;;;;;;81.95;26.90;;;9.70;99.90;;;;;;5026920;28;20036;-78
2023/11/21 10:18:04;;;;;;;86.65;27.92;;;9.60;99.90;;;;;;5028095;28;20062;-78
2023/11/21 10:20:30;;;;;;;93.78;30.55;;;9.60;99.90;;;;;;5011241;28;20492;-78
2023/11/21 10:22:56;;;;;;;101.70;30.63;;;9.70;99.90;;;;;;5045105;28;20036;-79
2023/11/21 10:25:25;;;;;;;122.70;35.85;;;9.70;99.90;;;;;;5005394;28;20103;-79
2023/11/21 10:27:54;;;;;;;119.35;37.97;;;9.70;99.90;;;;;;5047930;28;20057;-78
2023/11/21 10:30:20;;;;;;;82.88;27.00;;;9.80;99.90;;;;;;5030701;28;20029;-78
2023/11/21 10:32:46;;;;;;;110.22;34.40;;;9.90;99.90;;;;;;5046371;28;20033;-78
2023/11/21 10:35:12;;;;;;;79.18;28.98;;;10.00;99.90;;;;;;5028155;28;20113;-79
2023/11/21 10:37:43;;;;;;;87.28;29.45;;;10.00;99.90;;;;;;5013976;28;20419;-79
2023/11/21 10:40:12;;;;;;;89.95;30.27;;;10.20;99.90;;;;;;5028609;28;20066;-78
2023/11/21 10:42:41;;;;;;;86.45;28.08;;;10.20;99.90;;;;;;5015987;28;20618;-78
2023/11/21 10:45:13;;;;;;;90.05;32.05;;;10.40;99.90;;;;;;5029366;28;20577;-78
2023/11/21 10:47:40;;;;;;;121.40;36.92;;;10.40;99.90;;;;;;5027212;28;20504;-79
2023/11/21 10:50:06;;;;;;;105.40;33.70;;;10.60;99.90;;;;;;5018753;28;20521;-78
2023/11/21 10:52:33;;;;;;;125.30;39.97;;;10.60;99.90;;;;;;5029870;28;20037;-79
2023/11/21 10:54:59;;;;;;;132.70;38.53;;;10.80;99.90;;;;;;5033405;28;20029;-78
2023/11/21 10:57:24;;;;;;;149.52;43.42;;;10.80;99.90;;;;;;5013387;28;20393;-78
2023/11/21 10:59:52;;;;;;;144.18;42.35;;;10.90;99.90;;;;;;5012399;28;20029;-78
2023/11/21 11:02:27;;;;;;;147.52;44.10;;;11.00;99.90;;;;;;5050189;28;20063;-79
2023/11/21 11:04:56;;;;;;;128.05;40.85;;;11.10;99.90;;;;;;5031611;28;20480;-79
2023/11/21 11:07:24;;;;;;;131.85;40.22;;;11.20;99.90;;;;;;5030218;28;20025;-81
2023/11/21 11:09:49;;;;;;;103.47;34.83;;;11.30;99.90;;;;;;5044684;28;20091;-80
2023/11/21 11:12:17;;;;;;;97.38;35.50;;;11.50;99.90;;;;;;5044585;28;20040;-78
2023/11/21 11:14:44;;;;;;;81.93;30.15;;;11.40;99.90;;;;;;5029395;28;20033;-78
2023/11/21 11:17:10;;;;;;;101.60;32.38;;;11.40;99.90;;;;;;5030607;28;20025;-78
2023/11/21 11:19:36;;;;;;;82.68;30.05;;;11.40;99.90;;;;;;5028064;28;20035;-79
2023/11/21 11:22:35;;;;;;;80.82;29.17;;;11.40;99.90;;;;;;5031939;28;20571;-79
2023/11/21 11:25:24;;;;;;;80.07;29.20;;;11.40;99.90;;;;;;5014780;28;20166;-79
2023/11/21 11:28:11;;;;;;;88.22;31.02;;;11.40;99.90;;;;;;5046606;28;20028;-79
2023/11/21 11:31:03;;;;;;;87.93;30.67;;;11.30;99.90;;;;;;5030521;28;20445;-79
2023/11/21 11:33:45;;;;;;;98.45;31.17;;;11.40;99.90;;;;;;5029680;28;20033;-78
2023/11/21 11:36:29;;;;;;;89.00;31.55;;;11.50;99.90;;;;;;5043757;28;20509;-80
2023/11/21 11:38:56;;;;;;;95.72;30.73;;;11.60;99.90;;;;;;5045583;28;20037;-79
2023/11/21 11:41:32;;;;;;;86.07;30.05;;;11.60;99.90;;;;;;5015884;28;20029;-79
2023/11/21 11:44:52;;;;;;;85.20;29.25;;;11.60;99.90;;;;;;4984064;28;10000820;-79
2023/11/21 11:47:32;;;;;;;91.32;31.98;;;11.70;99.90;;;;;;5040188;28;20241;-79
2023/11/21 11:50:17;;;;;;;72.57;25.17;;;11.60;99.90;;;;;;5044004;28;20033;-79
2023/11/21 11:52:44;;;;;;;86.05;29.80;;;11.60;99.90;;;;;;5012611;28;20416;-79
2023/11/21 11:55:11;;;;;;;81.82;30.60;;;11.60;99.90;;;;;;5011189;28;20033;-79
2023/11/21 11:57:38;;;;;;;90.90;31.08;;;11.70;99.90;;;;;;5028015;28;20572;-78
2023/11/21 12:00:22;;;;;;;80.68;29.20;;;11.80;99.90;;;;;;5042531;28;20512;-79
2023/11/21 12:02:48;;;;;;;86.53;31.27;;;11.80;99.90;;;;;;5029645;28;20038;-79
2023/11/21 12:05:15;;;;;;;59.88;24.80;;;11.80;99.90;;;;;;5028413;28;20604;-79
2023/11/21 12:07:45;;;;;;;78.13;29.10;;;11.80;99.90;;;;;;5007822;28;20167;-79
2023/11/21 12:10:14;;;;;;;92.47;32.65;;;11.90;99.90;;;;;;5045213;28;20033;-79
2023/11/21 12:12:42;;;;;;;85.57;30.85;;;11.90;99.90;;;;;;5027507;28;20033;-79
2023/11/21 12:15:08;;;;;;;99.38;33.83;;;11.90;99.90;;;;;;5027678;28;20037;-79
2023/11/21 12:17:34;;;;;;;87.30;32.55;;;11.90;99.90;;;;;;5041339;28;20032;-79
2023/11/21 12:20:05;;;;;;;80.70;36.13;;;11.90;99.90;;;;;;5028507;28;20396;-79
2023/11/21 12:22:30;;;;;;;89.10;33.58;;;11.90;99.90;;;;;;5046837;28;20097;-79
2023/11/21 12:24:56;;;;;;;78.32;36.60;;;11.70;99.90;;;;;;5039573;28;20368;-78
2023/11/21 12:27:21;;;;;;;81.45;36.70;;;11.70;99.90;;;;;;5014224;28;20614;-78
2023/11/21 12:29:47;;;;;;;77.63;37.85;;;11.60;99.90;;;;;;5010761;28;20066;-78
2023/11/21 12:32:15;;;;;;;76.95;35.47;;;11.60;99.90;;;;;;5028053;28;20117;-78
2023/11/21 12:34:40;;;;;;;71.22;35.78;;;11.40;99.90;;;;;;5013054;28;20029;-79
2023/11/21 12:37:06;;;;;;;63.22;33.20;;;11.30;99.90;;;;;;5015660;28;20396;-78
2023/11/21 12:39:31;;;;;;;70.85;31.75;;;11.30;99.90;;;;;;5041933;28;20539;-79